Time;durP1;ratioP1;P1;durP2;ratioP2;P2;SDS_P1;SDS_P2;PMS_P1;PMS_P2;Temp;Humidity;BMP_temperature;BMP_pressure;BME280_temperature;BME280_humidity;BME280_pressure;Samples;Min_cycle;Max_cycle;Signal;HPM_P1;HPM_P2
2022/05/12 00:00:22;;;;;;;5.38;1.90;;;22.10;39.80;;;19.02;46.18;95613.25;5034743;28;20056;-56
2022/05/12 00:02:49;;;;;;;3.63;1.80;;;22.10;39.90;;;19.00;46.51;95608.19;5051489;28;20056;-56
2022/05/12 00:05:15;;;;;;;8.52;2.20;;;22.10;40.10;;;19.01;46.34;95607.06;5051237;28;20082;-55
2022/05/12 00:07:44;;;;;;;5.75;1.98;;;22.10;40.10;;;18.96;46.62;95607.22;5051246;28;20033;-53
2022/05/12 00:10:14;;;;;;;3.47;2.20;;;22.00;40.30;;;18.92;46.71;95609.75;5051130;28;20029;-54
2022/05/12 00:12:40;;;;;;;2.15;1.80;;;22.00;40.40;;;18.90;46.77;95614.69;5051150;28;20124;-56
2022/05/12 00:15:17;;;;;;;5.20;2.15;;;22.00;40.40;;;18.92;46.75;95615.16;5050325;28;20079;-58
2022/05/12 00:17:44;;;;;;;6.30;1.75;;;22.00;40.60;;;19.00;46.64;95616.28;5034670;28;20125;-54
2022/05/12 00:20:17;;;;;;;3.75;2.00;;;22.00;40.70;;;19.04;46.56;95625.31;5052379;28;20059;-53
2022/05/12 00:22:43;;;;;;;4.13;1.95;;;22.00;40.80;;;19.01;46.73;95633.25;5052645;28;20037;-56
2022/05/12 00:25:22;;;;;;;6.68;2.35;;;22.00;40.70;;;18.93;46.98;95641.03;5051170;28;20033;-58
2022/05/12 00:27:48;;;;;;;5.90;2.00;;;22.00;40.80;;;18.91;46.97;95645.94;5050891;28;20071;-57
2022/05/12 00:30:15;;;;;;;3.20;2.00;;;22.00;40.80;;;18.83;47.51;95638.63;5050926;28;20452;-54
2022/05/12 00:32:46;;;;;;;4.80;2.08;;;22.00;40.90;;;18.79;47.46;95634.97;5050958;28;20065;-56
2022/05/12 00:35:14;;;;;;;7.03;2.10;;;22.00;41.00;;;18.79;47.47;95642.28;5034399;28;20460;-55
2022/05/12 00:37:43;;;;;;;3.60;2.17;;;22.00;41.00;;;18.77;47.29;95631.00;5034397;28;20021;-52
2022/05/12 00:40:16;;;;;;;6.68;2.10;;;21.90;41.00;;;18.79;47.37;95639.59;5050764;28;20119;-56
2022/05/12 00:42:59;;;;;;;;;;;22.00;41.10;;;18.75;47.36;95630.53;5034899;28;20061;-52
2022/05/12 00:45:35;;;;;;;3.88;2.28;;;21.90;40.90;;;18.77;47.36;95633.69;5052129;28;19908;-54
2022/05/12 00:48:03;;;;;;;3.55;1.80;;;21.90;40.80;;;18.74;47.49;95635.16;5050863;28;20033;-56
2022/05/12 00:50:36;;;;;;;5.00;2.10;;;21.90;40.90;;;18.78;47.07;95643.41;5051790;28;20436;-55
2022/05/12 00:53:12;;;;;;;4.22;1.90;;;22.00;41.00;;;18.78;47.02;95648.81;5050866;28;20548;-53
2022/05/12 00:55:42;;;;;;;4.35;1.80;;;21.90;41.00;;;18.77;47.02;95648.00;5051982;28;20036;-52
2022/05/12 00:58:13;;;;;;;5.05;1.77;;;21.90;41.00;;;18.84;46.13;95653.72;5050842;28;20112;-56
2022/05/12 01:00:40;;;;;;;6.95;1.98;;;21.90;40.70;;;18.89;46.18;95648.16;5052071;28;20029;-53
2022/05/12 01:03:18;;;;;;;5.68;2.45;;;21.90;40.70;;;18.83;45.85;95645.94;5050566;28;20025;-52
2022/05/12 01:05:47;;;;;;;4.35;2.03;;;22.00;40.70;;;18.86;45.92;95645.31;5050534;28;20029;-52
2022/05/12 01:08:15;;;;;;;6.40;1.80;;;21.90;40.50;;;18.83;45.50;95649.41;5033830;28;20029;-53
2022/05/12 01:10:47;;;;;;;8.02;1.90;;;22.00;40.40;;;18.80;44.90;95641.97;5034131;28;20021;-53
2022/05/12 01:13:14;;;;;;;3.15;1.70;;;21.90;40.00;;;18.89;43.73;95626.56;5034304;28;20065;-54
2022/05/12 01:16:02;;;;;;;4.15;1.85;;;21.90;39.50;;;18.93;43.42;95638.34;5051682;28;20029;-52
2022/05/12 01:18:31;;;;;;;3.20;1.63;;;22.00;39.20;;;18.95;43.33;95643.41;5050405;28;20029;-55
2022/05/12 01:21:00;;;;;;;7.32;1.95;;;21.90;38.90;;;18.96;42.94;95634.22;5050469;28;20090;-52
2022/05/12 01:23:31;;;;;;;2.22;1.60;;;21.90;38.60;;;18.95;42.98;95638.81;5034234;28;20491;-52
2022/05/12 01:26:15;;;;;;;4.43;1.65;;;22.00;38.50;;;18.92;42.77;95644.03;5035406;28;20033;-53
2022/05/12 01:28:50;;;;;;;3.78;1.52;;;21.90;38.30;;;18.93;42.50;95642.97;5054310;28;20029;-54
2022/05/12 01:31:19;;;;;;;3.50;1.70;;;22.00;38.10;;;18.94;42.64;95644.53;5054171;28;20025;-54
2022/05/12 01:33:45;;;;;;;3.90;1.67;;;22.00;37.90;;;18.91;42.50;95642.47;5054177;28;20495;-55
2022/05/12 01:36:14;;;;;;;6.57;1.90;;;22.00;37.90;;;18.87;42.66;95649.63;5055239;28;20051;-56
2022/05/12 01:38:43;;;;;;;5.18;1.70;;;21.90;37.90;;;18.83;42.95;95654.81;5053640;28;20116;-54
2022/05/12 01:41:08;;;;;;;4.47;1.85;;;21.90;38.00;;;18.77;43.20;95652.59;5054051;28;20076;-56
2022/05/12 01:43:44;;;;;;;4.07;1.80;;;21.90;38.00;;;18.67;43.29;95650.97;5055121;28;20118;-55
2022/05/12 01:46:11;;;;;;;4.57;1.60;;;21.80;38.00;;;18.65;43.38;95661.28;5054069;28;20028;-53
2022/05/12 01:48:41;;;;;;;10.32;1.90;;;21.80;38.10;;;18.58;43.46;95653.63;5037478;28;20434;-57
2022/05/12 01:51:10;;;;;;;5.50;1.75;;;21.80;38.20;;;18.54;43.52;95663.47;5054956;28;20120;-56
2022/05/12 01:53:37;;;;;;;9.40;1.70;;;21.70;38.10;;;18.51;43.77;95666.78;5054960;28;20056;-55
2022/05/12 01:56:07;;;;;;;2.88;1.90;;;21.70;38.20;;;18.38;44.13;95668.50;5053750;28;20032;-52
2022/05/12 01:58:37;;;;;;;6.28;1.45;;;21.70;38.40;;;18.30;44.34;95660.34;5053697;28;20036;-52
2022/05/12 02:01:03;;;;;;;4.22;1.70;;;21.60;38.50;;;18.25;44.49;95664.00;5037204;28;20033;-53
2022/05/12 02:03:29;;;;;;;2.95;2.00;;;21.50;38.60;;;18.13;44.48;95661.88;5053305;28;20094;-53
2022/05/12 02:05:55;;;;;;;5.32;1.77;;;21.50;38.70;;;18.17;44.48;95667.44;5053634;28;20033;-53
2022/05/12 02:08:20;;;;;;;2.85;1.45;;;21.40;38.70;;;18.09;44.61;95670.91;5053433;28;20475;-54
2022/05/12 02:10:50;;;;;;;6.28;1.85;;;21.40;38.80;;;18.08;44.61;95672.00;5053412;28;20025;-53
2022/05/12 02:13:25;;;;;;;4.95;1.70;;;21.30;38.90;;;18.04;44.82;95683.41;5053560;28;20103;-53
2022/05/12 02:15:52;;;;;;;8.48;1.50;;;21.30;39.00;;;17.99;44.87;95683.56;5054423;28;20079;-52
2022/05/12 02:18:20;;;;;;;2.65;1.70;;;21.20;39.00;;;17.94;45.36;95682.88;5070510;22;20051;-53
2022/05/12 02:20:46;;;;;;;3.92;1.63;;;21.20;39.20;;;17.87;45.64;95674.44;5053366;28;20091;-53
2022/05/12 02:23:16;;;;;;;5.30;1.83;;;21.10;39.30;;;17.78;46.01;95682.47;5055591;28;20024;-53
2022/05/12 02:25:44;;;;;;;4.40;1.70;;;21.10;39.50;;;17.70;45.99;95683.97;5056485;28;20099;-52
2022/05/12 02:28:16;;;;;;;3.25;1.65;;;21.00;39.60;;;17.64;46.50;95685.19;5064413;28;20025;-51
2022/05/12 02:30:42;;;;;;;4.13;1.60;;;20.90;39.80;;;17.59;46.73;95690.72;5062660;28;20037;-49
2022/05/12 02:33:09;;;;;;;2.17;1.55;;;20.80;39.80;;;17.54;46.43;95683.53;5072370;28;20025;-54
2022/05/12 02:35:42;;;;;;;3.63;1.63;;;20.80;40.00;;;17.58;46.25;95691.81;5057214;28;20060;-51
2022/05/12 02:38:11;;;;;;;5.38;1.88;;;20.80;40.20;;;17.56;46.19;95686.72;5066799;28;20028;-50
2022/05/12 02:40:37;;;;;;;5.47;1.70;;;20.70;40.10;;;17.53;46.41;95687.34;5053589;28;20048;-53
2022/05/12 02:43:23;;;;;;;6.53;1.75;;;20.70;40.20;;;17.56;46.07;95686.72;5056219;28;20037;-49
2022/05/12 02:45:54;;;;;;;3.25;1.90;;;20.70;40.20;;;17.58;45.94;95692.63;5075003;28;20039;-50
2022/05/12 02:48:30;;;;;;;1.85;1.50;;;20.70;40.20;;;17.58;46.11;95698.00;5057313;28;20036;-49
2022/05/12 02:50:57;;;;;;;3.58;2.17;;;20.70;40.30;;;17.56;46.19;95699.41;5066305;28;20119;-49
2022/05/12 02:53:24;;;;;;;4.35;1.60;;;20.70;40.30;;;17.52;46.15;95696.53;5074512;28;20029;-53
2022/05/12 02:55:49;;;;;;;2.40;1.63;;;20.70;40.30;;;17.49;46.32;95705.22;5073530;28;20043;-51
2022/05/12 02:58:18;;;;;;;3.38;1.52;;;20.70;40.20;;;17.47;46.31;95704.72;5068430;28;20029;-50
2022/05/12 03:00:46;;;;;;;3.38;1.80;;;20.70;40.30;;;17.44;46.20;95707.22;5036221;28;20304;-53
2022/05/12 03:03:15;;;;;;;4.28;1.70;;;20.60;40.30;;;17.45;46.50;95706.13;5073313;28;20036;-51
2022/05/12 03:05:41;;;;;;;4.55;1.30;;;20.60;40.30;;;17.36;46.72;95716.84;5056345;28;20029;-50
2022/05/12 03:08:09;;;;;;;5.30;1.90;;;20.60;40.30;;;17.25;47.12;95713.56;5073982;28;20043;-49
2022/05/12 03:10:45;;;;;;;4.47;1.80;;;20.60;40.30;;;17.14;47.39;95708.72;5073265;28;20793;-51
2022/05/12 03:13:11;;;;;;;3.85;1.92;;;20.50;41.10;;;17.08;47.80;95711.53;5073029;28;20029;-50
2022/05/12 03:15:39;;;;;;;4.05;2.45;;;20.40;40.50;;;16.99;48.31;95716.03;5074038;28;20530;-51
2022/05/12 03:18:08;;;;;;;5.85;2.00;;;20.30;40.60;;;16.87;48.49;95718.44;5073779;28;20028;-51
2022/05/12 03:20:33;;;;;;;2.78;1.80;;;20.30;40.80;;;16.80;48.54;95716.16;5073258;28;20040;-50
2022/05/12 03:23:00;;;;;;;4.00;1.77;;;20.20;40.90;;;16.72;48.69;95724.88;5074202;28;20035;-51
2022/05/12 03:25:26;;;;;;;4.75;2.10;;;20.10;41.00;;;16.66;48.82;95724.19;5072476;28;20117;-52
2022/05/12 03:27:51;;;;;;;3.20;1.75;;;20.00;41.00;;;16.60;49.03;95727.28;5073624;28;20060;-55
2022/05/12 03:30:25;;;;;;;3.38;1.75;;;20.00;41.20;;;16.52;49.22;95734.16;5070895;28;20035;-49
2022/05/12 03:32:53;;;;;;;4.30;2.15;;;19.90;41.40;;;16.41;49.57;95736.22;5064313;28;20431;-54
2022/05/12 03:35:23;;;;;;;4.22;1.77;;;19.80;41.40;;;16.33;49.90;95738.84;5089191;28;20028;-51
2022/05/12 03:37:51;;;;;;;2.03;1.83;;;19.70;41.60;;;16.30;50.40;95744.81;5072019;28;20025;-49
2022/05/12 03:40:20;;;;;;;5.35;1.85;;;19.70;41.80;;;16.23;50.08;95736.31;5056031;28;20039;-50
2022/05/12 03:42:47;;;;;;;2.65;1.60;;;19.60;42.00;;;16.26;49.95;95741.88;5073374;28;20037;-50
2022/05/12 03:45:15;;;;;;;7.97;1.73;;;19.60;42.20;;;16.25;49.80;95737.63;5073531;28;20482;-53
2022/05/12 03:47:48;;;;;;;4.03;1.80;;;19.60;42.30;;;16.33;49.72;95739.63;5055992;28;20071;-50
2022/05/12 03:50:19;;;;;;;3.42;1.75;;;19.60;42.50;;;16.40;49.73;95756.16;5071484;28;20035;-53
2022/05/12 03:52:46;;;;;;;7.40;1.92;;;19.60;42.60;;;16.41;49.62;95756.94;5073188;28;20425;-52
2022/05/12 03:55:13;;;;;;;5.75;1.92;;;19.60;42.60;;;16.42;49.71;95755.84;5073278;28;20063;-50
2022/05/12 03:57:40;;;;;;;4.32;1.90;;;19.60;42.60;;;16.35;49.75;95750.84;5072267;28;20025;-52
2022/05/12 04:00:10;;;;;;;3.80;1.70;;;19.60;42.60;;;16.33;49.92;95758.44;5088379;28;20043;-51
2022/05/12 04:02:38;;;;;;;4.60;1.90;;;19.60;42.60;;;16.27;50.10;95751.56;5072110;28;20399;-49
2022/05/12 04:05:07;;;;;;;3.30;1.90;;;19.60;42.50;;;16.22;50.40;95757.00;5055045;28;20060;-49
2022/05/12 04:07:33;;;;;;;7.03;2.13;;;19.60;42.60;;;16.08;53.67;95757.00;5072881;28;20036;-51
2022/05/12 04:10:01;;;;;;;2.50;2.03;;;19.50;42.80;;;15.79;54.37;95746.44;5072366;28;20033;-49
2022/05/12 04:12:27;;;;;;;5.05;2.10;;;19.50;43.30;;;15.60;55.10;95753.69;5055540;28;20017;-50
2022/05/12 04:14:53;;;;;;;5.30;2.45;;;19.30;43.50;;;15.34;55.72;95747.94;5060296;28;20054;-51
2022/05/12 04:17:21;;;;;;;5.32;2.20;;;19.20;43.80;;;15.15;56.62;95745.25;5072831;28;20036;-53
2022/05/12 04:19:52;;;;;;;8.23;2.10;;;19.00;44.10;;;15.00;57.90;95744.34;5070591;28;20649;-50
2022/05/12 04:22:45;;;;;;;6.50;2.40;;;18.90;44.70;;;14.78;58.68;95755.59;5072546;28;20040;-50
2022/05/12 04:25:12;;;;;;;5.90;2.85;;;18.70;45.30;;;14.69;59.12;95754.66;5072717;28;20489;-49
2022/05/12 04:27:41;;;;;;;4.65;2.65;;;18.50;45.40;;;14.53;59.80;95759.38;5072380;28;20028;-53
2022/05/12 04:30:13;;;;;;;9.77;2.83;;;18.40;46.00;;;14.43;60.23;95769.41;5070892;28;20035;-50
2022/05/12 04:32:41;;;;;;;6.65;2.95;;;18.20;46.20;;;14.28;60.58;95762.31;5053545;28;20568;-50
2022/05/12 04:35:14;;;;;;;6.03;3.10;;;18.10;46.50;;;14.19;61.39;95772.81;5051411;28;20025;-48
2022/05/12 04:37:53;;;;;;;6.65;2.42;;;18.00;46.80;;;14.10;61.64;95772.66;5051399;28;20021;-52
2022/05/12 04:40:31;;;;;;;3.15;2.40;;;17.90;47.30;;;14.10;61.91;95769.97;5051081;28;20445;-50
2022/05/12 04:43:03;;;;;;;6.55;2.55;;;17.90;47.60;;;14.12;62.41;95785.75;5070882;28;20029;-49
2022/05/12 04:45:32;;;;;;;4.13;2.10;;;17.80;47.90;;;14.05;62.08;95785.28;5072044;28;20048;-51
2022/05/12 04:47:58;;;;;;;2.92;2.38;;;17.70;48.00;;;14.02;62.52;95791.22;5071099;28;20037;-49
2022/05/12 04:50:34;;;;;;;3.95;3.15;;;17.70;48.30;;;14.02;62.88;95791.22;5070570;28;20032;-51
2022/05/12 04:53:08;;;;;;;7.07;3.50;;;17.70;48.80;;;13.93;64.67;95799.03;5037933;28;20017;-50
2022/05/12 04:55:38;;;;;;;13.88;5.97;;;17.70;49.10;;;13.90;64.33;95796.94;5070998;28;20090;-49
2022/05/12 04:58:04;;;;;;;5.70;4.35;;;17.60;49.20;;;13.89;65.03;95803.38;5072323;28;20028;-50
2022/05/12 05:00:40;;;;;;;7.35;3.70;;;17.60;49.40;;;13.82;64.55;95803.69;5070358;28;20051;-51
2022/05/12 05:03:15;;;;;;;7.10;2.97;;;17.50;49.60;;;13.81;65.28;95806.63;5074908;28;20553;-50
2022/05/12 05:05:41;;;;;;;6.47;2.90;;;17.60;50.00;;;13.84;65.87;95806.06;5074839;28;20033;-49
2022/05/12 05:08:15;;;;;;;7.65;2.90;;;17.50;50.00;;;13.84;64.88;95816.78;5075896;28;20068;-49
2022/05/12 05:10:44;;;;;;;4.65;3.10;;;17.60;50.30;;;13.87;65.95;95816.22;5074477;28;20041;-49
2022/05/12 05:13:10;;;;;;;3.25;2.78;;;17.60;50.40;;;13.85;66.41;95810.34;5075947;28;20028;-51
2022/05/12 05:15:36;;;;;;;6.82;2.50;;;17.60;50.60;;;13.87;66.23;95817.03;5036726;28;20560;-51
2022/05/12 05:18:03;;;;;;;8.60;2.53;;;17.60;50.70;;;13.91;66.00;95821.81;5051921;28;20025;-52
2022/05/12 05:20:31;;;;;;;8.35;2.60;;;17.70;50.90;;;13.93;65.33;95825.81;5059837;28;20028;-49
2022/05/12 05:22:57;;;;;;;6.15;2.92;;;17.70;51.00;;;14.03;65.31;95832.97;5054490;28;20033;-50
2022/05/12 05:25:23;;;;;;;4.13;2.63;;;17.80;51.00;;;14.22;64.90;95838.44;5059876;28;20040;-52
2022/05/12 05:27:52;;;;;;;3.80;2.65;;;17.90;51.00;;;14.31;64.69;95834.88;5054105;28;20037;-52
2022/05/12 05:30:21;;;;;;;5.35;2.20;;;18.00;51.10;;;14.40;64.70;95836.97;5061977;28;20035;-51
2022/05/12 05:32:47;;;;;;;3.38;2.40;;;18.00;51.00;;;14.43;65.73;95845.22;5060477;28;20037;-53
2022/05/12 05:35:14;;;;;;;11.88;3.00;;;18.10;51.20;;;14.45;65.84;95845.75;5025900;28;20051;-53
2022/05/12 05:37:42;;;;;;;5.40;2.72;;;18.20;52.00;;;14.49;64.30;95844.09;5057763;28;20047;-50
2022/05/12 05:40:09;;;;;;;6.35;3.20;;;18.20;51.30;;;14.61;65.15;95853.69;5050533;28;20359;-50
2022/05/12 05:42:38;;;;;;;3.80;2.58;;;18.30;51.30;;;14.67;65.29;95856.03;5049889;28;20503;-52
2022/05/12 05:45:15;;;;;;;6.40;3.13;;;18.40;51.30;;;14.87;65.36;95865.72;5055908;28;20492;-49
2022/05/12 05:47:46;;;;;;;8.68;2.90;;;18.50;51.40;;;14.96;65.02;95847.94;5042823;28;20075;-49
2022/05/12 05:50:16;;;;;;;6.15;2.90;;;18.60;51.30;;;15.16;64.62;95854.16;5053782;28;20495;-51
2022/05/12 05:55:33;;;;;;;4.10;2.85;;;19.10;51.30;;;15.84;63.41;95872.63;5052255;28;20027;-50
2022/05/12 05:58:09;;;;;;;4.43;2.67;;;19.30;51.20;;;16.02;61.65;95875.59;5037367;28;20449;-51
2022/05/12 06:00:43;;;;;;;9.38;3.10;;;19.50;51.00;;;16.13;61.69;95877.81;5044687;28;20119;-49
2022/05/12 06:03:10;;;;;;;7.85;2.67;;;19.70;50.80;;;16.22;62.67;95883.31;5069863;28;20060;-52
2022/05/12 06:05:39;;;;;;;5.68;2.90;;;19.80;50.70;;;16.31;62.37;95881.56;5029235;28;20037;-50
2022/05/12 06:08:08;;;;;;;10.57;3.35;;;19.90;50.60;;;16.47;62.14;95884.00;5055380;28;20041;-49
2022/05/12 06:10:38;;;;;;;4.82;2.78;;;20.10;50.50;;;16.71;61.00;95892.75;5066933;28;20033;-53
2022/05/12 06:13:08;;;;;;;7.35;2.47;;;20.40;50.80;;;16.93;60.47;95889.44;5052988;28;20024;-53
2022/05/12 06:15:41;;;;;;;5.63;2.95;;;20.60;50.00;;;17.08;61.31;95889.16;5060862;28;20087;-52
2022/05/12 06:18:16;;;;;;;5.75;3.03;;;20.80;50.00;;;17.27;60.49;95891.75;5050394;28;20023;-51
2022/05/12 06:20:47;;;;;;;9.80;2.50;;;20.90;49.80;;;17.35;59.93;95891.03;5052051;28;21011;-51
2022/05/12 06:23:16;;;;;;;3.85;2.45;;;21.10;49.60;;;17.58;58.43;95889.22;5050368;28;20418;-56
2022/05/12 06:25:42;;;;;;;4.63;2.17;;;21.30;49.10;;;17.88;57.92;95891.59;5060491;28;20104;-52
2022/05/12 06:28:08;;;;;;;8.32;2.30;;;21.70;48.70;;;18.35;55.50;95892.94;5057213;28;20469;-52
2022/05/12 06:30:39;;;;;;;4.25;2.08;;;22.20;48.10;;;18.92;51.68;95887.75;5053850;28;20500;-49
2022/05/12 06:33:06;;;;;;;6.22;2.05;;;22.60;46.80;;;19.53;49.49;95893.38;5054873;28;20055;-52
2022/05/12 06:35:32;;;;;;;3.85;1.98;;;23.20;46.00;;;20.02;47.45;95896.03;5056882;28;20021;-53
2022/05/12 06:40:56;;;;;;;7.93;2.42;;;24.30;43.60;;;20.97;44.56;95893.25;5058671;28;20102;-51
2022/05/12 06:43:23;;;;;;;3.42;2.80;;;25.00;42.20;;;21.36;42.65;95893.28;5075623;28;20028;-52
2022/05/12 06:45:54;;;;;;;5.13;2.40;;;25.40;41.10;;;21.77;43.35;95889.09;5074077;28;20025;-54
2022/05/12 06:48:26;;;;;;;6.68;2.78;;;25.90;40.40;;;22.11;41.80;95888.06;5075449;28;20035;-53
2022/05/12 06:50:53;;;;;;;6.97;2.42;;;26.40;39.50;;;22.45;39.95;95881.56;5073266;28;20037;-55
2022/05/12 06:53:22;;;;;;;4.07;2.38;;;26.80;38.70;;;22.61;37.70;95890.69;5090868;28;20369;-52
2022/05/12 06:56:00;;;;;;;6.63;2.35;;;27.20;36.90;;;22.85;37.75;95897.34;5074033;28;20032;-55
2022/05/12 06:58:26;;;;;;;10.18;2.58;;;27.60;35.60;;;23.20;37.41;95891.53;5075147;28;20021;-49
2022/05/12 07:00:51;;;;;;;5.90;2.40;;;27.80;35.00;;;23.33;36.19;95884.97;5074691;28;20070;-53
2022/05/12 07:03:19;;;;;;;3.35;2.10;;;28.20;34.40;;;23.31;36.82;95890.72;5056870;28;20388;-50
2022/05/12 07:05:51;;;;;;;3.80;2.80;;;28.40;33.50;;;23.22;35.96;95892.78;5073621;28;20035;-49
2022/05/12 07:08:18;;;;;;;7.47;2.78;;;28.60;32.40;;;23.07;36.80;95896.16;5075090;28;20532;-54
2022/05/12 07:10:44;;;;;;;6.40;2.33;;;28.90;31.50;;;23.40;36.39;95889.84;5074323;28;20426;-55
2022/05/12 07:13:09;;;;;;;4.75;2.40;;;29.00;31.10;;;23.55;35.87;95891.88;5074055;28;20021;-50
2022/05/12 07:15:50;;;;;;;5.10;2.53;;;29.20;30.80;;;24.03;35.99;95893.00;5073623;28;20027;-49
2022/05/12 07:18:22;;;;;;;6.63;2.80;;;29.40;30.60;;;24.40;34.84;95892.91;5057059;28;20136;-49
2022/05/12 07:26:42;;;;;;;5.13;2.70;;;30.40;29.30;;;24.85;33.79;95886.34;5074798;28;20392;-48
2022/05/12 07:29:18;;;;;;;5.10;2.60;;;30.60;29.10;;;24.91;34.11;95891.22;5073764;28;20028;-49
2022/05/12 07:31:47;;;;;;;5.00;2.60;;;30.80;28.80;;;25.12;33.05;95888.28;5064165;28;20129;-50
2022/05/12 07:34:15;;;;;;;6.13;3.00;;;30.90;28.70;;;25.03;33.93;95884.91;5036942;28;20070;-49
2022/05/12 07:36:45;;;;;;;5.60;2.40;;;30.90;28.40;;;25.09;32.68;95890.88;5054374;28;20101;-51
2022/05/12 07:39:14;;;;;;;9.38;3.30;;;30.90;28.10;;;25.20;33.19;95891.97;5053113;28;20436;-48
2022/05/12 07:41:41;;;;;;;2.90;2.60;;;31.10;28.00;;;25.23;32.23;95896.72;5054525;28;20029;-52
2022/05/12 07:44:11;;;;;;;7.90;2.92;;;31.20;27.60;;;25.28;32.46;95890.22;5054838;28;20028;-53
2022/05/12 07:46:40;;;;;;;7.00;2.92;;;31.30;27.40;;;25.53;32.08;95896.28;5073265;28;20028;-53
2022/05/12 07:49:09;;;;;;;4.95;2.78;;;31.50;27.20;;;25.69;32.03;95888.06;5073808;28;20082;-51
2022/05/12 07:51:35;;;;;;;3.05;2.78;;;31.70;27.10;;;26.01;31.53;95903.28;5074337;28;20029;-51
2022/05/12 07:54:01;;;;;;;3.47;2.70;;;31.90;27.10;;;26.09;31.26;95893.28;5074339;28;20028;-52
2022/05/12 07:56:29;;;;;;;6.93;3.10;;;32.00;26.80;;;26.20;30.96;95904.44;5072699;28;20479;-51
2022/05/12 07:58:57;;;;;;;6.88;2.75;;;32.20;26.40;;;25.98;31.05;95904.00;5072401;28;20505;-52
2022/05/12 08:01:27;;;;;;;5.03;2.85;;;32.30;26.00;;;26.24;31.33;95914.28;5056076;28;20036;-50
2022/05/12 08:03:54;;;;;;;3.72;2.83;;;32.50;26.40;;;26.54;30.56;95911.03;5072380;28;20082;-48
2022/05/12 08:06:43;;;;;;;4.07;2.63;;;32.60;26.00;;;26.81;30.36;95920.16;5038585;28;20375;-51
2022/05/12 08:09:09;;;;;;;5.32;2.97;;;32.90;25.90;;;27.31;31.13;95914.84;5070865;28;20040;-53
2022/05/12 08:11:45;;;;;;;5.97;2.75;;;33.10;26.00;;;27.19;30.42;95915.81;5055299;28;20035;-50
2022/05/12 08:14:11;;;;;;;6.80;2.78;;;33.40;25.70;;;27.50;30.22;95920.25;5072048;28;20024;-51
2022/05/12 08:16:40;;;;;;;4.97;2.88;;;33.50;25.60;;;27.76;29.96;95918.69;5072136;28;20028;-51
2022/05/12 08:19:06;;;;;;;6.97;3.22;;;33.80;25.50;;;27.96;29.53;95919.44;5077182;22;20057;-56
2022/05/12 08:21:32;;;;;;;9.13;3.35;;;34.00;25.30;;;28.13;28.85;95924.34;5046146;28;20044;-55
2022/05/12 08:24:01;;;;;;;6.60;3.00;;;34.20;25.00;;;28.33;28.61;95923.09;5050071;28;20387;-56
2022/05/12 08:26:36;;;;;;;6.50;3.42;;;34.40;24.80;;;28.35;28.64;95925.44;5041036;28;20029;-56
2022/05/12 08:29:04;;;;;;;5.28;3.20;;;34.70;24.60;;;28.53;28.97;95936.66;5025914;28;20397;-57
2022/05/12 08:31:36;;;;;;;5.78;2.90;;;34.90;24.50;;;28.49;27.76;95936.63;5028032;28;20018;-54
2022/05/12 08:34:02;;;;;;;6.13;2.90;;;35.00;24.10;;;28.52;27.99;95944.09;5011694;28;20041;-56
2022/05/12 08:36:36;;;;;;;4.53;2.90;;;35.10;23.90;;;28.35;28.87;95934.44;5011675;28;20488;-56
2022/05/12 08:39:08;;;;;;;5.25;3.28;;;35.10;23.70;;;28.40;29.24;95936.09;5019390;28;20030;-56
2022/05/12 08:41:52;;;;;;;8.18;3.50;;;35.20;23.80;;;28.65;28.75;95939.16;5013450;28;20026;-54
2022/05/12 08:44:21;;;;;;;5.25;3.10;;;35.20;23.80;;;28.85;28.23;95939.78;5012525;28;20033;-57
2022/05/12 08:47:09;;;;;;;9.05;3.38;;;35.30;23.70;;;29.06;28.40;95936.53;5001466;28;20077;-56
2022/05/12 08:49:50;;;;;;;9.27;3.50;;;35.40;23.70;;;28.92;27.78;95923.41;5020151;28;20037;-57
2022/05/12 08:52:24;;;;;;;5.50;3.00;;;35.50;23.40;;;29.23;27.89;95937.84;5030763;28;20472;-54
2022/05/12 08:54:57;;;;;;;5.80;2.92;;;35.60;23.40;;;29.10;27.26;95933.81;5031956;28;20080;-56
2022/05/12 08:57:33;;;;;;;7.65;3.00;;;35.70;23.10;;;29.23;27.45;95935.13;5016547;28;20156;-55
2022/05/12 09:00:07;;;;;;;6.55;3.45;;;35.80;23.00;;;28.83;27.71;95926.47;5041364;28;20049;-57
2022/05/12 09:03:04;;;;;;;4.03;3.28;;;35.80;22.80;;;29.34;27.22;95933.28;5013817;28;20037;-56
2022/05/12 09:05:46;;;;;;;6.35;3.72;;;35.90;22.90;;;29.78;27.29;95929.75;5011678;28;20057;-55
2022/05/12 09:08:55;;;;;;;4.00;3.38;;;36.10;23.10;;;29.36;26.76;95930.13;5046882;28;20480;-56
2022/05/12 09:11:44;;;;;;;7.25;3.42;;;36.20;22.70;;;29.49;26.27;95928.72;5030739;28;20075;-56
2022/05/12 09:14:33;;;;;;;3.60;2.95;;;36.30;22.40;;;29.87;26.66;95937.66;5031850;28;20416;-53
2022/05/12 09:16:59;;;;;;;6.63;3.60;;;36.50;22.50;;;30.25;25.80;95930.09;5030800;28;20472;-56
2022/05/12 09:19:31;;;;;;;3.67;3.38;;;36.70;22.40;;;30.41;25.40;95930.56;5029365;28;20041;-56
2022/05/12 09:21:58;;;;;;;5.05;2.97;;;37.00;22.10;;;30.59;24.82;95917.72;5014183;28;20362;-54
2022/05/12 09:24:23;;;;;;;3.88;3.20;;;37.20;22.00;;;30.46;25.55;95918.41;5014131;28;20084;-55
2022/05/12 09:27:12;;;;;;;5.32;3.60;;;37.30;21.60;;;30.82;25.08;95919.38;5031684;28;20472;-55
2022/05/12 09:29:47;;;;;;;5.95;3.50;;;37.40;21.80;;;30.70;25.43;95908.72;5030363;28;20029;-53
2022/05/12 09:32:13;;;;;;;7.72;3.60;;;37.60;21.60;;;30.86;25.02;95922.94;5015666;28;20022;-56
2022/05/12 09:34:46;;;;;;;3.75;3.45;;;37.60;21.50;;;30.67;25.39;95919.28;5025299;28;20603;-54
2022/05/12 09:37:31;;;;;;;4.95;3.17;;;37.70;21.30;;;30.57;24.70;95908.28;5030379;28;20029;-56
2022/05/12 09:40:18;;;;;;;7.38;3.08;;;37.70;21.00;;;30.77;25.23;95909.53;5031567;28;20029;-57
2022/05/12 09:42:56;;;;;;;7.68;3.38;;;37.80;21.10;;;30.60;24.76;95905.53;5030610;28;20022;-55
2022/05/12 09:45:33;;;;;;;5.70;3.28;;;37.80;20.80;;;30.40;25.04;95905.06;5028839;28;20021;-53
2022/05/12 09:48:22;;;;;;;3.50;2.97;;;37.80;20.70;;;30.58;24.79;95907.09;5027769;28;20029;-56
2022/05/12 09:50:50;;;;;;;6.00;4.03;;;37.70;20.70;;;30.99;25.41;95907.63;5014756;28;20025;-57
2022/05/12 09:53:30;;;;;;;6.22;3.58;;;37.70;20.90;;;30.70;24.85;95903.22;5033670;28;20056;-57
2022/05/12 09:56:26;;;;;;;4.18;3.15;;;37.80;20.80;;;30.73;25.15;95899.69;5013084;28;20033;-56
2022/05/12 09:59:22;;;;;;;9.57;3.10;;;37.80;20.60;;;30.95;25.03;95895.84;5014454;28;20096;-56
2022/05/12 10:02:02;;;;;;;5.90;3.40;;;37.90;20.60;;;31.18;24.61;95897.47;5012451;28;20389;-57
2022/05/12 10:10:25;;;;;;;4.47;3.38;;;37.90;20.40;;;30.51;23.96;95894.09;5013856;28;20083;-58
2022/05/12 10:13:01;;;;;;;5.07;3.38;;;37.80;20.10;;;31.04;24.59;95884.47;5013720;28;20041;-58
2022/05/12 10:15:39;;;;;;;5.10;3.13;;;37.80;20.40;;;31.37;23.91;95883.38;5013859;28;20041;-56
2022/05/12 10:18:27;;;;;;;5.35;3.15;;;37.90;20.50;;;31.37;23.75;95883.38;5013588;28;20022;-55
2022/05/12 10:20:56;;;;;;;5.90;3.45;;;38.00;20.20;;;31.32;23.37;95879.00;4998520;28;20080;-55
2022/05/12 10:23:43;;;;;;;8.18;3.50;;;38.20;20.10;;;30.82;24.49;95876.19;5021137;28;20029;-57
2022/05/12 10:26:29;;;;;;;3.80;3.50;;;38.30;19.90;;;31.03;23.82;95872.69;5013608;28;20132;-55
2022/05/12 10:29:51;;;;;;;4.57;3.35;;;38.20;19.90;;;31.07;24.10;95875.44;5014810;28;20104;-57
2022/05/12 10:33:00;;;;;;;6.47;3.40;;;38.20;19.90;;;31.61;24.12;95870.00;5019291;28;20022;-55
2022/05/12 10:35:41;;;;;;;6.90;3.35;;;38.30;20.10;;;32.23;23.66;95859.28;5015422;28;20038;-59
2022/05/12 10:38:18;;;;;;;5.57;3.10;;;38.60;20.30;;;32.42;23.19;95860.78;5027737;28;20407;-55
2022/05/12 10:40:51;;;;;;;3.55;3.25;;;38.80;20.20;;;32.43;23.59;95853.28;5024394;28;20372;-56
2022/05/12 10:43:56;;;;;;;4.93;3.55;;;39.00;20.00;;;32.88;22.88;95850.75;5017296;28;20048;-59
2022/05/12 10:46:38;;;;;;;3.95;3.45;;;39.30;20.00;;;33.19;22.71;95851.75;5046292;28;20530;-58
2022/05/12 10:49:29;;;;;;;8.73;3.83;;;39.70;19.90;;;33.48;21.77;95846.78;5026218;28;20068;-57
2022/05/12 10:52:03;;;;;;;5.68;3.72;;;40.10;19.60;;;33.81;21.67;95837.03;5022458;28;20384;-56
2022/05/12 10:55:13;;;;;;;5.03;3.70;;;40.50;19.50;;;33.99;21.17;95839.63;5027555;28;20113;-58
2022/05/12 10:58:21;;;;;;;4.75;4.20;;;41.00;19.30;;;34.05;20.99;95842.75;5024401;28;20052;-60